Monday, February 19, 2018, 5:05 AM EST
Back to Local

KNUI, Knui Webster Field Annex

Location: Saint Inigoes, MD, United States Lat: 38.15
Local Time: 5:05 AM EST (10:05 GMT) Lon: -76.417
Time Zone: US/Eastern Elev: 19 ft

Show me the last for .
Show Decoded

2018-02-19 04:53 METAR KNUI 190953Z AUTO 10003KT 9SM CLR 05/M01 A3047 RMK AO2 SLP318 T00501006 $
                 =
2018-02-19 03:53 METAR KNUI 190853Z AUTO 11005KT 9SM CLR 06/M01 A3047 RMK AO2 SLP318 T00561006
                 58014 $ =
2018-02-19 02:53 METAR KNUI 190753Z AUTO VRB06KT 9SM CLR 05/M01 A3048 RMK AO2 SLP322 T00501006 $
                 =
2018-02-19 01:53 METAR KNUI 190653Z AUTO VRB05KT 8SM CLR 04/M01 A3050 RMK AO2 SLP328 T00441006 $
                 =
2018-02-19 00:53 METAR KNUI 190553Z AUTO 15004KT 8SM CLR 04/M01 A3051 RMK AO2 SLP332 T00441006
                 10044 20017 50006 $ =
2018-02-18 23:53 METAR KNUI 190453Z AUTO 13006KT 8SM CLR 04/M01 A3052 RMK AO2 SLP332 T00441006
                 401060011 $ =
2018-02-18 22:53 METAR KNUI 190353Z AUTO 12005KT 9SM CLR 04/M01 A3051 RMK AO2 SLP331 T00441006 $
                 =
2018-02-18 21:53 METAR KNUI 190253Z AUTO 10006KT 8SM CLR 04/M01 A3049 RMK AO2 SLP325 T00441006
                 53014 $ =
2018-02-18 20:53 METAR KNUI 190153Z AUTO 08003KT 10SM CLR 02/00 A3046 RMK AO2 SLP315 T00170000 $
                 =
2018-02-18 19:53 METAR KNUI 190053Z AUTO 08003KT 10SM CLR 02/00 A3046 RMK AO2 SLP314 T00220000 $
                 =
2018-02-18 18:53 METAR KNUI 182353Z AUTO 00000KT 10SM CLR 04/M01 A3045 RMK AO2 SLP312 T00391006
                 10106 20039 53016 $ =
2018-02-18 17:53 METAR KNUI 182253Z AUTO 00000KT 10SM CLR 06/M01 A3042 RMK AO2 SLP301 T00561006 $
                 =
2018-02-18 16:53 METAR KNUI 182153Z AUTO 06005KT 10SM CLR 09/M01 A3041 RMK AO2 SLP298 T00891011 $
                 =
2018-02-18 15:53 METAR KNUI 182053Z AUTO 06006KT 10SM CLR 09/M01 A3041 RMK AO2 SLP296 T00941006
                 55002 $ =
2018-02-18 14:53 METAR KNUI 181953Z AUTO 06006KT 10SM CLR 10/M01 A3040 RMK AO2 SLP294 T01001006 $
                 =
2018-02-18 13:53 METAR KNUI 181853Z AUTO 04005KT 10SM CLR 11/M01 A3039 RMK AO2 SLP290 T01061006 $
                 =
2018-02-18 12:53 METAR KNUI 181753Z AUTO VRB05KT 10SM BKN046 11/M02 A3041 RMK AO2 SLP298
                 T01061017 10106 20011 50016 $ =
2018-02-18 11:53 METAR KNUI 181653Z AUTO 33008KT 300V010 10SM BKN047 09/M02 A3042 RMK AO2 SLP301
                 T00941017 $ =
2018-02-18 10:53 METAR KNUI 181553Z AUTO 35008KT 300V020 10SM SCT046 09/M01 A3040 RMK AO2 SLP295
                 T00891006 $ =
2018-02-18 09:53 METAR KNUI 181453Z AUTO VRB05KT 10SM CLR 08/M01 A3037 RMK AO2 SLP282 T00831006
                 51046 $ =
2018-02-18 08:53 METAR KNUI 181353Z AUTO 34005KT 10SM CLR 06/M01 A3034 RMK AO2 SLP272 T00611011 $
                 =
2018-02-18 07:53 METAR KNUI 181253Z AUTO 28004KT 8SM CLR 03/M02 A3029 RMK AO2 PRESRR SLP255
                 T00331022 $ =
2018-02-18 06:53 METAR KNUI 181153Z AUTO 00000KT 7SM CLR 02/00 A3023 RMK AO2 SLP236 70048
                 T00170000 10039 20017 51037 $ =
2018-02-18 06:27 METAR KNUI 181127Z AUTO 28003KT 8SM SCT006 02/M01 A3022 RMK AO2 T00221006 $ =
2018-02-18 05:53 METAR KNUI 181053Z AUTO 31004KT 9SM BKN007 03/M01 A3020 RMK AO2 SLP226 T00331011
                 $ =
2018-02-18 05:39 METAR KNUI 181039Z AUTO 29005KT 9SM BKN007 03/M01 A3019 =
2018-02-18 05:30 METAR KNUI 181030Z AUTO 31004KT 9SM SCT007 03/M05 A3018 RMK AO2 T00281050 $ =
2018-02-18 05:20 METAR KNUI 181020Z AUTO 00000KT 10SM BKN007 03/M03 A3017 RMK AO2 T00281028 $ =
2018-02-18 05:07 METAR KNUI 181007Z AUTO 28004KT 10SM SCT008 03/M02 A3016 RMK AO2 T00281017 $ =

Support USWX by starting your Amazon purchase here.